createdAt,value
2017-04-11T00:00:06.463Z,8.3
2017-04-11T00:00:16.210Z,8.2
2017-04-11T00:00:26.204Z,8.2
2017-04-11T00:00:36.197Z,8.2
2017-04-11T00:00:46.190Z,8.1
2017-04-11T00:00:56.184Z,8.2
2017-04-11T00:01:06.192Z,8.3
2017-04-11T00:01:16.173Z,8.2
2017-04-11T00:01:26.167Z,8.2
2017-04-11T00:01:36.162Z,8.2
2017-04-11T00:01:46.154Z,8.2
2017-04-11T00:01:56.151Z,8.3
2017-04-11T00:02:06.142Z,8.2
2017-04-11T00:02:16.141Z,8.3
2017-04-11T00:02:26.130Z,8.2
2017-04-11T00:02:36.127Z,8.3
2017-04-11T00:02:46.120Z,8.2
2017-04-11T00:02:56.115Z,8.3
2017-04-11T00:03:06.120Z,8.2
2017-04-11T00:03:16.101Z,8.3
2017-04-11T00:03:26.095Z,8.2
2017-04-11T00:03:36.090Z,8.3
2017-04-11T00:03:46.086Z,8.2
2017-04-11T00:03:56.082Z,8.2
2017-04-11T00:04:06.083Z,8.2
2017-04-11T00:04:16.069Z,8.2
2017-04-11T00:04:26.062Z,8.2
2017-04-11T00:04:36.054Z,8.3
2017-04-11T00:04:46.051Z,8.3
2017-04-11T00:04:56.042Z,8.2
2017-04-11T00:05:06.049Z,8.2
2017-04-11T00:05:16.035Z,8.2
2017-04-11T00:05:26.025Z,8.3
2017-04-11T00:05:36.018Z,8.3
2017-04-11T00:05:46.015Z,8.2
2017-04-11T00:05:56.006Z,8.2
2017-04-11T00:06:06.001Z,8.3
2017-04-11T00:06:15.998Z,8.3
2017-04-11T00:06:25.989Z,8.2
2017-04-11T00:06:35.983Z,8.2
2017-04-11T00:06:45.977Z,8.3
2017-04-11T00:06:55.972Z,8.2
2017-04-11T00:07:05.966Z,8.2
2017-04-11T00:07:15.959Z,8.2
2017-04-11T00:07:25.952Z,8.3
2017-04-11T00:07:35.948Z,8.3
2017-04-11T00:07:45.944Z,8.2
2017-04-11T00:07:55.937Z,8.3
2017-04-11T00:08:05.934Z,8.3
2017-04-11T00:08:15.923Z,8.3
2017-04-11T00:08:25.919Z,8.3
2017-04-11T00:08:35.920Z,8.3
2017-04-11T00:08:45.906Z,8.2
2017-04-11T00:08:55.903Z,8.3
2017-04-11T00:09:05.893Z,8.2
2017-04-11T00:09:15.889Z,8.2
2017-04-11T00:09:25.883Z,8.2
2017-04-11T00:09:35.879Z,8.2
2017-04-11T00:09:45.870Z,8.2
2017-04-11T00:09:55.868Z,8.3
2017-04-11T00:10:05.862Z,8.2
2017-04-11T00:10:15.855Z,8.3
2017-04-11T00:10:25.850Z,8.2
2017-04-11T00:10:35.844Z,8.2
2017-04-11T00:10:45.839Z,8.2
2017-04-11T00:10:55.829Z,8.3
2017-04-11T00:11:05.827Z,8.2
2017-04-11T00:11:15.826Z,8.2
2017-04-11T00:11:25.812Z,8.2
2017-04-11T00:11:35.807Z,8.1
2017-04-11T00:11:45.799Z,8.1
2017-04-11T00:11:55.796Z,8.2
2017-04-11T00:12:05.788Z,8.3
2017-04-11T00:12:15.783Z,8.3
2017-04-11T00:12:25.776Z,8.2
2017-04-11T00:12:35.772Z,8.3
2017-04-11T00:12:45.764Z,8.2
2017-04-11T00:12:55.762Z,8.2
2017-04-11T00:13:05.756Z,8.2
2017-04-11T00:13:15.750Z,8.3
2017-04-11T00:13:25.744Z,8.3
2017-04-11T00:13:35.735Z,8.2
2017-04-11T00:13:45.729Z,8.1
2017-04-11T00:13:55.723Z,8.3
2017-04-11T00:14:05.716Z,8.2
2017-04-11T00:14:15.714Z,8.2
2017-04-11T00:14:25.708Z,8.2
2017-04-11T00:14:35.702Z,8.2
2017-04-11T00:14:45.693Z,8.1
2017-04-11T00:14:55.690Z,8.1
2017-04-11T00:15:05.684Z,8.1
2017-04-11T00:15:15.677Z,8.1
2017-04-11T00:15:25.669Z,8.1
2017-04-11T00:15:35.665Z,8.1
2017-04-11T00:15:45.660Z,8.2
2017-04-11T00:15:55.655Z,8.2
2017-04-11T00:16:05.647Z,8.2
2017-04-11T00:16:15.643Z,8.2
2017-04-11T00:16:25.633Z,8.1
2017-04-11T00:16:35.631Z,8.2
2017-04-11T00:16:45.622Z,8.2
2017-04-11T00:16:55.619Z,8.2
2017-04-11T00:17:05.614Z,8.2
2017-04-11T00:17:15.608Z,8.1
2017-04-11T00:17:25.599Z,8.1
2017-04-11T00:17:35.596Z,8.2
2017-04-11T00:17:45.587Z,8.1
2017-04-11T00:17:55.581Z,8.1
2017-04-11T00:18:05.577Z,8.2
2017-04-11T00:18:15.572Z,8.2
2017-04-11T00:18:25.566Z,8.1
2017-04-11T00:18:35.560Z,8.2
2017-04-11T00:18:45.552Z,8.2
2017-04-11T00:18:55.546Z,8.2
2017-04-11T00:19:05.544Z,8.1
2017-04-11T00:19:15.536Z,8.2
2017-04-11T00:19:25.531Z,8.1
2017-04-11T00:19:35.525Z,8.1
2017-04-11T00:19:45.516Z,8.1
2017-04-11T00:19:55.510Z,8.1
2017-04-11T00:20:05.757Z,8.1
2017-04-11T00:20:15.499Z,8.1
2017-04-11T00:20:25.495Z,8
2017-04-11T00:20:35.520Z,8.1
2017-04-11T00:20:45.479Z,8.1
2017-04-11T00:20:55.474Z,8.1
2017-04-11T00:21:05.472Z,8.1
2017-04-11T00:21:15.463Z,8.1
2017-04-11T00:21:25.457Z,8.1
2017-04-11T00:21:35.452Z,8.1
2017-04-11T00:21:45.447Z,8.1
2017-04-11T00:21:55.440Z,8.2
2017-04-11T00:22:05.436Z,8.2
2017-04-11T00:22:15.430Z,8.1
2017-04-11T00:22:25.424Z,8.1
2017-04-11T00:22:35.415Z,8
2017-04-11T00:22:45.411Z,8.1
2017-04-11T00:22:55.406Z,8
2017-04-11T00:23:05.401Z,8
2017-04-11T00:23:15.392Z,8.1
2017-04-11T00:23:25.388Z,8.1
2017-04-11T00:23:35.383Z,8.1
2017-04-11T00:23:45.376Z,8.1
2017-04-11T00:23:55.370Z,8
2017-04-11T00:24:05.363Z,8
2017-04-11T00:24:15.358Z,8
2017-04-11T00:24:25.353Z,8.1
2017-04-11T00:24:35.347Z,8.1
2017-04-11T00:24:45.339Z,8
2017-04-11T00:24:55.333Z,8.1
2017-04-11T00:25:05.579Z,8
2017-04-11T00:25:15.323Z,8.1
2017-04-11T00:25:25.318Z,8
2017-04-11T00:25:35.311Z,8
2017-04-11T00:25:45.302Z,8.1
2017-04-11T00:25:55.300Z,7.9
2017-04-11T00:26:05.291Z,8.1
2017-04-11T00:26:15.286Z,8
2017-04-11T00:26:25.281Z,8.1
2017-04-11T00:26:35.275Z,8.1
2017-04-11T00:26:45.267Z,8.1
2017-04-11T00:26:55.265Z,8.1
2017-04-11T00:27:05.259Z,8.1
2017-04-11T00:27:15.249Z,8.1
2017-04-11T00:27:25.246Z,8.1
2017-04-11T00:27:35.238Z,8.1
2017-04-11T00:27:45.232Z,8
2017-04-11T00:27:55.229Z,7.9
2017-04-11T00:28:05.222Z,8
2017-04-11T00:28:15.216Z,8
2017-04-11T00:28:25.212Z,8.1
2017-04-11T00:28:35.205Z,8
2017-04-11T00:28:45.197Z,8
2017-04-11T00:28:55.193Z,8.1
2017-04-11T00:29:05.187Z,8.1
2017-04-11T00:29:15.179Z,8
2017-04-11T00:29:25.176Z,8
2017-04-11T00:29:35.167Z,8
2017-04-11T00:29:45.163Z,8.1
2017-04-11T00:29:55.157Z,8.1
2017-04-11T00:30:05.399Z,8
2017-04-11T00:30:15.144Z,8
2017-04-11T00:30:25.140Z,8.1
2017-04-11T00:30:35.134Z,8
2017-04-11T00:30:45.126Z,7.9
2017-04-11T00:30:55.122Z,8
2017-04-11T00:31:05.114Z,7.9
2017-04-11T00:31:15.107Z,7.9
2017-04-11T00:31:25.102Z,8
2017-04-11T00:31:35.096Z,8
2017-04-11T00:31:45.089Z,7.9
2017-04-11T00:31:55.087Z,7.9
2017-04-11T00:32:05.079Z,8
2017-04-11T00:32:15.072Z,8
2017-04-11T00:32:25.068Z,8
2017-04-11T00:32:35.062Z,8
2017-04-11T00:32:45.055Z,8
2017-04-11T00:32:55.053Z,7.9
2017-04-11T00:33:05.042Z,7.9
2017-04-11T00:33:15.045Z,7.9
2017-04-11T00:33:25.031Z,8
2017-04-11T00:33:35.027Z,7.9
2017-04-11T00:33:45.021Z,7.9
2017-04-11T00:33:55.011Z,7.9
2017-04-11T00:34:05.013Z,7.9
2017-04-11T00:34:15.002Z,7.9
2017-04-11T00:34:24.998Z,7.9
2017-04-11T00:34:34.992Z,7.9
2017-04-11T00:34:44.984Z,7.9
2017-04-11T00:34:54.977Z,7.9
2017-04-11T00:35:04.975Z,8
2017-04-11T00:35:14.968Z,7.9
2017-04-11T00:35:24.961Z,7.9
2017-04-11T00:35:34.954Z,7.9
2017-04-11T00:35:44.947Z,7.9
2017-04-11T00:35:54.945Z,7.9
2017-04-11T00:36:04.941Z,8
2017-04-11T00:36:14.930Z,7.9
2017-04-11T00:36:24.924Z,7.9
2017-04-11T00:36:34.921Z,7.9
2017-04-11T00:36:44.912Z,8
2017-04-11T00:36:54.909Z,7.9
2017-04-11T00:37:04.900Z,7.9
2017-04-11T00:37:14.897Z,7.9
2017-04-11T00:37:24.893Z,7.9
2017-04-11T00:37:34.885Z,8
2017-04-11T00:37:44.879Z,7.9
2017-04-11T00:37:54.870Z,7.9
2017-04-11T00:38:04.867Z,7.9
2017-04-11T00:38:14.861Z,8
2017-04-11T00:38:24.854Z,8
2017-04-11T00:38:34.847Z,7.9
2017-04-11T00:38:44.844Z,8
2017-04-11T00:38:54.835Z,7.9
2017-04-11T00:39:04.833Z,7.9
2017-04-11T00:39:14.823Z,7.9
2017-04-11T00:39:24.817Z,8
2017-04-11T00:39:34.814Z,8
2017-04-11T00:39:44.807Z,8
2017-04-11T00:39:54.800Z,8
2017-04-11T00:40:04.794Z,8
2017-04-11T00:40:14.793Z,7.9
2017-04-11T00:40:24.782Z,7.9
2017-04-11T00:40:34.778Z,7.9
2017-04-11T00:40:44.806Z,7.9
2017-04-11T00:40:54.765Z,8
2017-04-11T00:41:04.757Z,8
2017-04-11T00:41:14.757Z,7.9
2017-04-11T00:41:24.746Z,7.9
2017-04-11T00:41:34.740Z,8
2017-04-11T00:41:44.737Z,8
2017-04-11T00:41:54.730Z,7.9
2017-04-11T00:42:04.725Z,8
2017-04-11T00:42:14.719Z,7.9
2017-04-11T00:42:24.713Z,7.9
2017-04-11T00:42:34.704Z,7.9
2017-04-11T00:42:44.699Z,7.9
2017-04-11T00:42:54.693Z,7.9
2017-04-11T00:43:04.687Z,7.9
2017-04-11T00:43:14.682Z,7.9
2017-04-11T00:43:24.675Z,7.9
2017-04-11T00:43:34.673Z,7.9
2017-04-11T00:43:44.662Z,7.9
2017-04-11T00:43:54.666Z,8
2017-04-11T00:44:04.654Z,7.9
2017-04-11T00:44:14.647Z,8
2017-04-11T00:44:24.641Z,8
2017-04-11T00:44:34.633Z,8
2017-04-11T00:44:44.627Z,7.9
2017-04-11T00:44:54.621Z,7.9
2017-04-11T00:45:04.868Z,7.9
2017-04-11T00:45:14.610Z,7.9
2017-04-11T00:45:24.606Z,8
2017-04-11T00:45:34.599Z,8
2017-04-11T00:45:44.591Z,7.9
2017-04-11T00:45:54.586Z,7.9
2017-04-11T00:46:04.581Z,8
2017-04-11T00:46:14.574Z,8
2017-04-11T00:46:24.568Z,7.9
2017-04-11T00:46:34.562Z,8
2017-04-11T00:46:44.556Z,8
2017-04-11T00:46:54.550Z,8
2017-04-11T00:47:04.544Z,7.9
2017-04-11T00:47:14.538Z,7.9
2017-04-11T00:47:24.534Z,8
2017-04-11T00:47:34.527Z,7.9
2017-04-11T00:47:44.520Z,7.9
2017-04-11T00:47:54.516Z,7.9
2017-04-11T00:48:04.509Z,7.9
2017-04-11T00:48:14.502Z,8
2017-04-11T00:48:24.497Z,7.9
2017-04-11T00:48:34.490Z,7.9
2017-04-11T00:48:44.485Z,8
2017-04-11T00:48:54.479Z,7.9
2017-04-11T00:49:04.474Z,7.9
2017-04-11T00:49:14.470Z,8
2017-04-11T00:49:24.461Z,7.9
2017-04-11T00:49:34.457Z,8
2017-04-11T00:49:44.451Z,7.9
2017-04-11T00:49:54.441Z,7.9
2017-04-11T00:50:04.686Z,7.9
2017-04-11T00:50:14.432Z,7.9
2017-04-11T00:50:24.424Z,7.8
2017-04-11T00:50:34.421Z,7.9
2017-04-11T00:50:44.416Z,7.9
2017-04-11T00:50:54.409Z,7.9
2017-04-11T00:51:04.401Z,7.9
2017-04-11T00:51:14.395Z,8
2017-04-11T00:51:24.392Z,7.9
2017-04-11T00:51:34.387Z,8
2017-04-11T00:51:44.377Z,8
2017-04-11T00:51:54.374Z,8
2017-04-11T00:52:04.369Z,7.9
2017-04-11T00:52:14.359Z,7.9
2017-04-11T00:52:24.360Z,7.9
2017-04-11T00:52:34.347Z,7.9
2017-04-11T00:52:44.341Z,7.9
2017-04-11T00:52:54.336Z,7.9
2017-04-11T00:53:04.332Z,7.9
2017-04-11T00:53:14.324Z,7.8
2017-04-11T00:53:24.318Z,7.9
2017-04-11T00:53:34.312Z,7.9
2017-04-11T00:53:44.309Z,7.9
2017-04-11T00:53:54.302Z,7.9
2017-04-11T00:54:04.296Z,7.9
2017-04-11T00:54:14.291Z,7.9
2017-04-11T00:54:24.282Z,7.9
2017-04-11T00:54:34.276Z,7.9
2017-04-11T00:54:44.274Z,7.9
2017-04-11T00:54:54.266Z,7.9
2017-04-11T00:55:04.511Z,8
2017-04-11T00:55:14.255Z,7.9
2017-04-11T00:55:24.248Z,7.9
2017-04-11T00:55:34.243Z,7.9
2017-04-11T00:55:44.234Z,7.9
2017-04-11T00:55:54.229Z,7.9
2017-04-11T00:56:04.226Z,7.9
2017-04-11T00:56:14.220Z,7.9
2017-04-11T00:56:24.211Z,7.9
2017-04-11T00:56:34.204Z,8
2017-04-11T00:56:44.202Z,7.9
2017-04-11T00:56:54.193Z,7.9
2017-04-11T00:57:04.191Z,7.9
2017-04-11T00:57:14.184Z,7.9
2017-04-11T00:57:24.177Z,7.9
2017-04-11T00:57:34.172Z,7.8
2017-04-11T00:57:44.166Z,7.9
2017-04-11T00:57:54.157Z,7.9
2017-04-11T00:58:04.154Z,7.9
2017-04-11T00:58:14.148Z,7.9
2017-04-11T00:58:24.142Z,8
2017-04-11T00:58:34.138Z,7.9
2017-04-11T00:58:44.128Z,8
2017-04-11T00:58:54.127Z,7.9
2017-04-11T00:59:04.147Z,7.9
2017-04-11T00:59:14.112Z,7.9
2017-04-11T00:59:24.106Z,7.9
2017-04-11T00:59:34.098Z,8
2017-04-11T00:59:44.092Z,7.9
2017-04-11T00:59:54.088Z,7.8
2017-04-11T01:00:04.082Z,7.9
2017-04-11T01:00:14.077Z,7.9
2017-04-11T01:00:24.068Z,7.9
2017-04-11T01:00:34.062Z,7.9
2017-04-11T01:00:44.056Z,7.8
2017-04-11T01:00:54.051Z,7.9
2017-04-11T01:01:04.044Z,7.8
2017-04-11T01:01:14.037Z,7.8
2017-04-11T01:01:24.035Z,7.8
2017-04-11T01:01:34.028Z,7.7
2017-04-11T01:01:44.025Z,7.9
2017-04-11T01:01:54.014Z,7.9
2017-04-11T01:02:04.008Z,7.9
2017-04-11T01:02:14.006Z,7.9
2017-04-11T01:02:23.996Z,7.9
2017-04-11T01:02:33.993Z,7.9
2017-04-11T01:02:43.988Z,7.8
2017-04-11T01:02:53.978Z,7.9
2017-04-11T01:03:03.973Z,7.9
2017-04-11T01:03:13.968Z,7.9
2017-04-11T01:03:23.960Z,7.8
2017-04-11T01:03:33.958Z,7.9
2017-04-11T01:03:43.953Z,7.9
2017-04-11T01:03:53.942Z,7.9
2017-04-11T01:04:03.938Z,8
2017-04-11T01:04:13.931Z,8
2017-04-11T01:04:23.926Z,7.8
2017-04-11T01:04:33.919Z,7.9
2017-04-11T01:04:43.916Z,8
2017-04-11T01:04:53.911Z,7.8
2017-04-11T01:05:03.900Z,7.9
2017-04-11T01:05:13.899Z,7.8
2017-04-11T01:05:23.892Z,7.9
2017-04-11T01:05:33.885Z,7.9
2017-04-11T01:05:43.878Z,7.8
2017-04-11T01:05:53.872Z,7.8
2017-04-11T01:06:03.865Z,7.8
2017-04-11T01:06:13.861Z,7.9
2017-04-11T01:06:23.853Z,7.8
2017-04-11T01:06:33.848Z,7.8
2017-04-11T01:06:43.843Z,7.8
2017-04-11T01:06:53.838Z,7.9
2017-04-11T01:07:03.832Z,7.8
2017-04-11T01:07:13.826Z,7.8
2017-04-11T01:07:23.819Z,7.8
2017-04-11T01:07:33.816Z,7.8
2017-04-11T01:07:43.810Z,7.8
2017-04-11T01:07:53.803Z,7.8
2017-04-11T01:08:03.796Z,7.8
2017-04-11T01:08:13.790Z,7.8
2017-04-11T01:08:23.782Z,7.8
2017-04-11T01:08:33.779Z,7.8
2017-04-11T01:08:43.772Z,7.8
2017-04-11T01:08:53.766Z,7.8
2017-04-11T01:09:03.758Z,7.9
2017-04-11T01:09:13.756Z,7.8
2017-04-11T01:09:23.752Z,7.9
2017-04-11T01:09:33.743Z,7.8
2017-04-11T01:09:43.737Z,7.8
2017-04-11T01:09:53.728Z,7.8
2017-04-11T01:10:03.722Z,7.8
2017-04-11T01:10:13.718Z,7.8
2017-04-11T01:10:23.714Z,7.9
2017-04-11T01:10:33.710Z,7.9
2017-04-11T01:10:43.700Z,7.9
2017-04-11T01:10:53.693Z,7.8
2017-04-11T01:11:03.687Z,7.8
2017-04-11T01:11:13.682Z,7.8
2017-04-11T01:11:23.675Z,7.8
2017-04-11T01:11:33.670Z,7.9
2017-04-11T01:11:43.664Z,7.9
2017-04-11T01:11:53.661Z,7.8
2017-04-11T01:12:03.650Z,7.9
2017-04-11T01:12:13.645Z,7.8
2017-04-11T01:12:23.640Z,7.8
2017-04-11T01:12:33.633Z,7.8
2017-04-11T01:12:43.631Z,7.8
2017-04-11T01:12:53.622Z,7.9
2017-04-11T01:13:03.616Z,7.8
2017-04-11T01:13:13.614Z,7.8
2017-04-11T01:13:23.604Z,7.8
2017-04-11T01:13:33.598Z,7.8
2017-04-11T01:13:43.596Z,7.8
2017-04-11T01:13:53.587Z,7.8
2017-04-11T01:14:03.582Z,7.8
2017-04-11T01:14:13.574Z,7.8
2017-04-11T01:14:23.570Z,7.7
2017-04-11T01:14:33.565Z,7.8
2017-04-11T01:14:43.559Z,7.8
2017-04-11T01:14:53.549Z,7.8
2017-04-11T01:15:03.794Z,7.7
2017-04-11T01:15:13.537Z,7.8
2017-04-11T01:15:23.534Z,7.8
2017-04-11T01:15:33.527Z,7.8
2017-04-11T01:15:43.522Z,7.7
2017-04-11T01:15:53.514Z,7.8
2017-04-11T01:16:03.509Z,7.8
2017-04-11T01:16:13.506Z,7.7
2017-04-11T01:16:23.500Z,7.8
2017-04-11T01:16:33.498Z,7.8
2017-04-11T01:16:43.484Z,7.7
2017-04-11T01:16:53.481Z,7.8
2017-04-11T01:17:03.474Z,7.7
2017-04-11T01:17:13.466Z,7.7
2017-04-11T01:17:23.464Z,7.7
2017-04-11T01:17:33.457Z,7.8
2017-04-11T01:17:43.449Z,7.7
2017-04-11T01:17:53.443Z,7.7
2017-04-11T01:18:03.439Z,7.8
2017-04-11T01:18:13.431Z,7.7
2017-04-11T01:18:23.427Z,7.7
2017-04-11T01:18:33.423Z,7.7
2017-04-11T01:18:43.413Z,7.8
2017-04-11T01:18:53.407Z,7.8
2017-04-11T01:19:03.402Z,7.8
2017-04-11T01:19:13.395Z,7.8
2017-04-11T01:19:23.390Z,7.8
2017-04-11T01:19:33.388Z,7.7
2017-04-11T01:19:43.377Z,7.7
2017-04-11T01:19:53.371Z,7.6
2017-04-11T01:20:03.619Z,7.8
2017-04-11T01:20:13.361Z,7.7
2017-04-11T01:20:23.355Z,7.8
2017-04-11T01:20:33.347Z,7.8
2017-04-11T01:20:43.341Z,7.8
2017-04-11T01:20:53.336Z,7.8
2017-04-11T01:21:03.331Z,7.7
2017-04-11T01:21:13.326Z,7.8
2017-04-11T01:21:23.318Z,7.7
2017-04-11T01:21:33.311Z,7.7
2017-04-11T01:21:43.306Z,7.8
2017-04-11T01:21:53.299Z,7.7
2017-04-11T01:22:03.294Z,7.7
2017-04-11T01:22:13.290Z,7.7
2017-04-11T01:22:23.284Z,7.8
2017-04-11T01:22:33.278Z,7.8
2017-04-11T01:22:43.273Z,7.7
2017-04-11T01:22:53.271Z,7.7
2017-04-11T01:23:03.259Z,7.7
2017-04-11T01:23:13.251Z,7.7
2017-04-11T01:23:23.249Z,7.7
2017-04-11T01:23:33.243Z,7.7
2017-04-11T01:23:43.236Z,7.8
2017-04-11T01:23:53.231Z,7.7
2017-04-11T01:24:03.222Z,7.7
2017-04-11T01:24:13.216Z,7.7
2017-04-11T01:24:23.210Z,7.7
2017-04-11T01:24:33.207Z,7.7
2017-04-11T01:24:43.200Z,7.7
2017-04-11T01:24:53.193Z,7.7
2017-04-11T01:25:03.438Z,7.8
2017-04-11T01:25:13.182Z,7.7
2017-04-11T01:25:23.175Z,7.7
2017-04-11T01:25:33.170Z,7.7
2017-04-11T01:25:43.162Z,7.6
2017-04-11T01:25:53.159Z,7.8
2017-04-11T01:26:03.150Z,7.8
2017-04-11T01:26:13.145Z,7.8
2017-04-11T01:26:23.141Z,7.8
2017-04-11T01:26:33.133Z,7.8
2017-04-11T01:26:43.127Z,7.7
2017-04-11T01:26:53.119Z,7.8
2017-04-11T01:27:03.117Z,7.7
2017-04-11T01:27:13.112Z,7.7
2017-04-11T01:27:23.105Z,7.7
2017-04-11T01:27:33.099Z,7.8
2017-04-11T01:27:43.091Z,7.7
2017-04-11T01:27:53.085Z,7.7
2017-04-11T01:28:03.081Z,7.8
2017-04-11T01:28:13.073Z,7.7
2017-04-11T01:28:23.070Z,7.7
2017-04-11T01:28:33.061Z,7.7
2017-04-11T01:28:43.055Z,7.7
2017-04-11T01:28:53.050Z,7.7
2017-04-11T01:29:03.046Z,7.7
2017-04-11T01:29:13.039Z,7.7
2017-04-11T01:29:23.035Z,7.7
2017-04-11T01:29:33.027Z,7.6
2017-04-11T01:29:43.019Z,7.7
2017-04-11T01:29:53.015Z,7.7
2017-04-11T01:30:03.012Z,7.6
2017-04-11T01:30:13.001Z,7.6
2017-04-11T01:30:22.994Z,7.7
2017-04-11T01:30:32.989Z,7.6
2017-04-11T01:30:42.986Z,7.6
2017-04-11T01:30:52.977Z,7.7
2017-04-11T01:31:02.971Z,7.7
2017-04-11T01:31:12.964Z,7.7
2017-04-11T01:31:22.959Z,7.7
2017-04-11T01:31:32.956Z,7.7
2017-04-11T01:31:42.947Z,7.7
2017-04-11T01:31:52.944Z,7.7
2017-04-11T01:32:02.943Z,7.7
2017-04-11T01:32:12.932Z,7.7
2017-04-11T01:32:22.925Z,7.7
2017-04-11T01:32:32.917Z,7.6
2017-04-11T01:32:42.914Z,7.7
2017-04-11T01:32:52.908Z,7.6
2017-04-11T01:33:02.900Z,7.7
2017-04-11T01:33:12.896Z,7.7
2017-04-11T01:33:22.889Z,7.7
2017-04-11T01:33:32.885Z,7.7
2017-04-11T01:33:42.875Z,7.7
2017-04-11T01:33:52.872Z,7.6
2017-04-11T01:34:02.862Z,7.7
2017-04-11T01:34:12.858Z,7.7
2017-04-11T01:34:22.851Z,7.7
2017-04-11T01:34:32.848Z,7.7
2017-04-11T01:34:42.840Z,7.7
2017-04-11T01:34:52.835Z,7.7
2017-04-11T01:35:02.829Z,7.7
2017-04-11T01:35:12.822Z,7.7
2017-04-11T01:35:22.818Z,7.7
2017-04-11T01:35:32.812Z,7.6
2017-04-11T01:35:42.806Z,7.7
2017-04-11T01:35:52.798Z,7.6
2017-04-11T01:36:02.795Z,7.6
2017-04-11T01:36:12.786Z,7.6
2017-04-11T01:36:22.780Z,7.6
2017-04-11T01:36:32.774Z,7.6
2017-04-11T01:36:42.768Z,7.6
2017-04-11T01:36:52.765Z,7.6
2017-04-11T01:37:02.758Z,7.6
2017-04-11T01:37:12.753Z,7.6
2017-04-11T01:37:22.745Z,7.5
2017-04-11T01:37:32.743Z,7.6
2017-04-11T01:37:42.734Z,7.6
2017-04-11T01:37:52.726Z,7.5
2017-04-11T01:38:02.721Z,7.5
2017-04-11T01:38:12.715Z,7.5
2017-04-11T01:38:22.711Z,7.5
2017-04-11T01:38:32.707Z,7.6
2017-04-11T01:38:42.698Z,7.5
2017-04-11T01:38:52.690Z,7.5
2017-04-11T01:39:02.685Z,7.5
2017-04-11T01:39:12.683Z,7.5
2017-04-11T01:39:22.671Z,7.5
2017-04-11T01:39:32.666Z,7.5
2017-04-11T01:39:42.660Z,7.5
2017-04-11T01:39:52.655Z,7.5
2017-04-11T01:40:02.650Z,7.6
2017-04-11T01:40:12.642Z,7.6
2017-04-11T01:40:22.639Z,7.5
2017-04-11T01:40:32.630Z,7.4
2017-04-11T01:40:42.624Z,7.5
2017-04-11T01:40:52.618Z,7.5
2017-04-11T01:41:02.611Z,7.5
2017-04-11T01:41:12.607Z,7.5
2017-04-11T01:41:22.602Z,7.5
2017-04-11T01:41:32.597Z,7.4
2017-04-11T01:41:42.589Z,7.5
2017-04-11T01:41:52.585Z,7.6
2017-04-11T01:42:02.577Z,7.6
2017-04-11T01:42:12.573Z,7.5
2017-04-11T01:42:22.564Z,7.6
2017-04-11T01:42:32.559Z,7.5
2017-04-11T01:42:42.555Z,7.5
2017-04-11T01:42:52.555Z,7.6
2017-04-11T01:43:02.541Z,7.6
2017-04-11T01:43:12.535Z,7.5
2017-04-11T01:43:22.531Z,7.5
2017-04-11T01:43:32.523Z,7.4
2017-04-11T01:43:42.519Z,7.5
2017-04-11T01:43:52.513Z,7.5
2017-04-11T01:44:02.507Z,7.5
2017-04-11T01:44:12.499Z,7.5
2017-04-11T01:44:22.493Z,7.5
2017-04-11T01:44:32.489Z,7.6
2017-04-11T01:44:42.483Z,7.5
2017-04-11T01:44:52.478Z,7.5
2017-04-11T01:45:02.720Z,7.6
2017-04-11T01:45:12.463Z,7.6
2017-04-11T01:45:22.459Z,7.6
2017-04-11T01:45:32.451Z,7.4
2017-04-11T01:45:42.447Z,7.6
2017-04-11T01:45:52.438Z,7.6
2017-04-11T01:46:02.434Z,7.6
2017-04-11T01:46:12.430Z,7.5
2017-04-11T01:46:22.424Z,7.5
2017-04-11T01:46:32.415Z,7.5
2017-04-11T01:46:42.409Z,7.6
2017-04-11T01:46:52.405Z,7.5
2017-04-11T01:47:02.401Z,7.5
2017-04-11T01:47:12.394Z,7.4
2017-04-11T01:47:22.385Z,7.6
2017-04-11T01:47:32.383Z,7.5
2017-04-11T01:47:42.373Z,7.5
2017-04-11T01:47:52.369Z,7.4
2017-04-11T01:48:02.364Z,7.5
2017-04-11T01:48:12.357Z,7.5
2017-04-11T01:48:22.353Z,7.4
2017-04-11T01:48:32.346Z,7.5
2017-04-11T01:48:42.337Z,7.5
2017-04-11T01:48:52.331Z,7.6
2017-04-11T01:49:02.325Z,7.4
2017-04-11T01:49:12.319Z,7.6
2017-04-11T01:49:22.314Z,7.4
2017-04-11T01:49:32.309Z,7.4
2017-04-11T01:49:42.302Z,7.5
2017-04-11T01:49:52.296Z,7.6
2017-04-11T01:50:02.541Z,7.6
2017-04-11T01:50:12.284Z,7.5
2017-04-11T01:50:22.278Z,7.5
2017-04-11T01:50:32.276Z,7.5
2017-04-11T01:50:42.266Z,7.5
2017-04-11T01:50:52.262Z,7.5
2017-04-11T01:51:02.256Z,7.5
2017-04-11T01:51:12.249Z,7.5
2017-04-11T01:51:22.241Z,7.5
2017-04-11T01:51:32.236Z,7.5
2017-04-11T01:51:42.233Z,7.5
2017-04-11T01:51:52.226Z,7.6
2017-04-11T01:52:02.218Z,7.5
2017-04-11T01:52:12.213Z,7.5
2017-04-11T01:52:22.208Z,7.5
2017-04-11T01:52:32.203Z,7.5
2017-04-11T01:52:42.201Z,7.4
2017-04-11T01:52:52.191Z,7.5
2017-04-11T01:53:02.181Z,7.4
2017-04-11T01:53:12.180Z,7.5
2017-04-11T01:53:22.174Z,7.5
2017-04-11T01:53:32.163Z,7.5
2017-04-11T01:53:42.161Z,7.5
2017-04-11T01:53:52.154Z,7.5
2017-04-11T01:54:02.146Z,7.5
2017-04-11T01:54:12.141Z,7.4
2017-04-11T01:54:22.135Z,7.5
2017-04-11T01:54:32.128Z,7.4
2017-04-11T01:54:42.122Z,7.5
2017-04-11T01:54:52.118Z,7.5
2017-04-11T01:55:02.110Z,7.5
2017-04-11T01:55:12.104Z,7.4
2017-04-11T01:55:22.100Z,7.5
2017-04-11T01:55:32.093Z,7.5
2017-04-11T01:55:42.087Z,7.5
2017-04-11T01:55:52.080Z,7.5
2017-04-11T01:56:02.074Z,7.5
2017-04-11T01:56:12.068Z,7.5
2017-04-11T01:56:22.063Z,7.5
2017-04-11T01:56:32.055Z,7.4
2017-04-11T01:56:42.049Z,7.5
2017-04-11T01:56:52.047Z,7.5
2017-04-11T01:57:02.037Z,7.4
2017-04-11T01:57:12.034Z,7.5
2017-04-11T01:57:22.029Z,7.4
2017-04-11T01:57:32.022Z,7.5
2017-04-11T01:57:42.015Z,7.5
2017-04-11T01:57:52.007Z,7.5
2017-04-11T01:58:02.004Z,7.5
2017-04-11T01:58:11.999Z,7.5
2017-04-11T01:58:21.990Z,7.5
2017-04-11T01:58:31.987Z,7.5
2017-04-11T01:58:41.982Z,7.6
2017-04-11T01:58:51.974Z,7.5
2017-04-11T01:59:01.967Z,7.5
2017-04-11T01:59:11.962Z,7.6
2017-04-11T01:59:21.957Z,7.6
2017-04-11T01:59:31.951Z,7.5
2017-04-11T01:59:41.941Z,7.5
2017-04-11T01:59:51.939Z,7.4
2017-04-11T02:00:01.934Z,7.7
2017-04-11T02:00:11.924Z,7.5
2017-04-11T02:00:21.920Z,7.6
2017-04-11T02:00:31.912Z,7.6
2017-04-11T02:00:41.908Z,7.6
2017-04-11T02:00:51.902Z,7.5
2017-04-11T02:01:01.898Z,7.5
2017-04-11T02:01:11.888Z,7.5
2017-04-11T02:01:21.885Z,7.6
2017-04-11T02:01:31.876Z,7.6
2017-04-11T02:01:41.873Z,7.5
2017-04-11T02:01:51.864Z,7.6
2017-04-11T02:02:01.859Z,7.6
2017-04-11T02:02:11.855Z,7.5
2017-04-11T02:02:21.848Z,7.6
2017-04-11T02:02:31.843Z,7.6
2017-04-11T02:02:41.838Z,7.5
2017-04-11T02:02:51.831Z,7.6
2017-04-11T02:03:01.821Z,7.5
2017-04-11T02:03:11.817Z,7.6
2017-04-11T02:03:21.813Z,7.6
2017-04-11T02:03:31.804Z,7.6
2017-04-11T02:03:41.800Z,7.6
2017-04-11T02:03:51.791Z,7.6
2017-04-11T02:04:01.787Z,7.6
2017-04-11T02:04:11.780Z,7.5
2017-04-11T02:04:21.777Z,7.5
2017-04-11T02:04:31.768Z,7.5
2017-04-11T02:04:41.762Z,7.6
2017-04-11T02:04:51.756Z,7.5
2017-04-11T02:05:01.752Z,7.6
2017-04-11T02:05:11.747Z,7.5
2017-04-11T02:05:21.739Z,7.7
2017-04-11T02:05:31.732Z,7.6
2017-04-11T02:05:41.726Z,7.5
2017-04-11T02:05:51.724Z,7.6
2017-04-11T02:06:01.716Z,7.6
2017-04-11T02:06:11.716Z,7.5
2017-04-11T02:06:21.704Z,7.6
2017-04-11T02:06:31.696Z,7.5
2017-04-11T02:06:41.691Z,7.5
2017-04-11T02:06:51.686Z,7.5
2017-04-11T02:07:01.681Z,7.6
2017-04-11T02:07:11.672Z,7.6
2017-04-11T02:07:21.668Z,7.7
2017-04-11T02:07:31.663Z,7.6
2017-04-11T02:07:41.652Z,7.6
2017-04-11T02:07:51.652Z,7.6
2017-04-11T02:08:01.642Z,7.5
2017-04-11T02:08:11.638Z,7.5
2017-04-11T02:08:21.630Z,7.5
2017-04-11T02:08:31.626Z,7.5
2017-04-11T02:08:41.620Z,7.6
2017-04-11T02:08:51.618Z,7.6
2017-04-11T02:09:01.604Z,7.6
2017-04-11T02:09:11.601Z,7.5
2017-04-11T02:09:21.596Z,7.5
2017-04-11T02:09:31.591Z,7.6
2017-04-11T02:09:41.583Z,7.6
2017-04-11T02:09:51.575Z,7.5
2017-04-11T02:10:01.823Z,7.5
2017-04-11T02:10:11.567Z,7.6
2017-04-11T02:10:21.561Z,7.5
2017-04-11T02:10:31.555Z,7.5
2017-04-11T02:10:41.547Z,7.6
2017-04-11T02:10:51.544Z,7.6
2017-04-11T02:11:01.537Z,7.6
2017-04-11T02:11:11.531Z,7.6
2017-04-11T02:11:21.525Z,7.6
2017-04-11T02:11:31.519Z,7.6
2017-04-11T02:11:41.512Z,7.6
2017-04-11T02:11:51.504Z,7.6
2017-04-11T02:12:01.499Z,7.6
2017-04-11T02:12:11.492Z,7.6
2017-04-11T02:12:21.489Z,7.6
2017-04-11T02:12:31.480Z,7.5
2017-04-11T02:12:41.474Z,7.5
2017-04-11T02:12:51.472Z,7.5
2017-04-11T02:13:01.462Z,7.6
2017-04-11T02:13:11.457Z,7.6
2017-04-11T02:13:21.454Z,7.5
2017-04-11T02:13:31.445Z,7.5
2017-04-11T02:13:41.438Z,7.6
2017-04-11T02:13:51.435Z,7.6
2017-04-11T02:14:01.429Z,7.6
2017-04-11T02:14:11.421Z,7.6
2017-04-11T02:14:21.416Z,7.6
2017-04-11T02:14:31.410Z,7.5
2017-04-11T02:14:41.404Z,7.7
2017-04-11T02:14:51.396Z,7.7
2017-04-11T02:15:01.644Z,7.7
2017-04-11T02:15:11.387Z,7.7
2017-04-11T02:15:21.378Z,7.6
2017-04-11T02:15:31.375Z,7.6
2017-04-11T02:15:41.368Z,7.7
2017-04-11T02:15:51.363Z,7.7
2017-04-11T02:16:01.354Z,7.7
2017-04-11T02:16:11.352Z,7.7
2017-04-11T02:16:21.343Z,7.7
2017-04-11T02:16:31.338Z,7.7
2017-04-11T02:16:41.331Z,7.7
2017-04-11T02:16:51.327Z,7.6
2017-04-11T02:17:01.318Z,7.6
2017-04-11T02:17:11.313Z,7.7
2017-04-11T02:17:21.309Z,7.6
2017-04-11T02:17:31.303Z,7.7
2017-04-11T02:17:41.295Z,7.7
2017-04-11T02:17:51.290Z,7.6
2017-04-11T02:18:01.283Z,7.7
2017-04-11T02:18:11.276Z,7.7
2017-04-11T02:18:21.272Z,7.7
2017-04-11T02:18:31.264Z,7.7